createdAt,value
2023-01-04T00:01:36.782Z,5.94
2023-01-04T00:04:05.157Z,5.95
2023-01-04T00:06:34.749Z,5.96
2023-01-04T00:09:02.845Z,5.97
2023-01-04T00:11:30.901Z,5.97
2023-01-04T00:13:59.958Z,5.98
2023-01-04T00:16:29.255Z,6.00
2023-01-04T00:18:58.109Z,6.01
2023-01-04T00:21:27.719Z,6.00
2023-01-04T00:23:59.250Z,6.01
2023-01-04T00:26:29.069Z,6.01
2023-01-04T00:28:58.588Z,6.01
2023-01-04T00:31:27.262Z,6.03
2023-01-04T00:33:56.203Z,6.03
2023-01-04T00:36:24.418Z,6.04
2023-01-04T00:39:07.350Z,6.03
2023-01-04T00:44:27.078Z,6.00
2023-01-04T00:46:55.211Z,5.99
2023-01-04T00:49:23.316Z,6.01
2023-01-04T00:51:51.541Z,5.98
2023-01-04T00:54:20.007Z,5.97
2023-01-04T00:56:49.712Z,5.95
2023-01-04T00:59:20.439Z,5.93
2023-01-04T01:01:49.390Z,5.94
2023-01-04T01:04:19.300Z,5.95
2023-01-04T01:06:48.094Z,5.95
2023-01-04T01:09:16.533Z,5.96
2023-01-04T01:11:44.967Z,5.97
2023-01-04T01:14:17.728Z,5.98
2023-01-04T01:16:55.793Z,6.01
2023-01-04T01:19:25.713Z,6.03
2023-01-04T01:21:54.007Z,6.03
2023-01-04T01:24:22.142Z,6.06
2023-01-04T01:26:50.305Z,6.06
2023-01-04T01:29:19.779Z,6.09
2023-01-04T01:31:47.959Z,6.11
2023-01-04T01:34:16.121Z,6.14
2023-01-04T01:36:44.224Z,6.17
2023-01-04T01:39:12.305Z,6.18
2023-01-04T01:41:40.652Z,6.21
2023-01-04T01:44:47.385Z,6.22
2023-01-04T01:47:18.938Z,6.26
2023-01-04T01:49:47.848Z,6.25
2023-01-04T01:52:18.878Z,6.28
2023-01-04T01:54:50.227Z,6.30
2023-01-04T01:57:20.452Z,6.29
2023-01-04T01:59:51.356Z,6.30
2023-01-04T02:02:20.991Z,6.30
2023-01-04T02:04:51.220Z,6.30
2023-01-04T02:07:25.858Z,6.33
2023-01-04T02:09:54.841Z,6.33
2023-01-04T02:12:23.210Z,6.34
2023-01-04T02:14:52.137Z,6.38
2023-01-04T02:17:30.589Z,6.40
2023-01-04T02:20:15.459Z,6.41
2023-01-04T02:23:28.885Z,6.44
2023-01-04T02:26:29.899Z,6.47
2023-01-04T02:29:40.809Z,6.50
2023-01-04T02:32:13.565Z,6.53
2023-01-04T02:34:46.604Z,6.55
2023-01-04T02:37:26.689Z,6.59
2023-01-04T02:39:58.577Z,6.60
2023-01-04T02:42:47.992Z,6.65
2023-01-04T02:45:19.264Z,6.65
2023-01-04T02:48:05.567Z,6.68
2023-01-04T02:50:36.847Z,6.67
2023-01-04T02:53:09.692Z,6.68
2023-01-04T02:55:48.873Z,6.70
2023-01-04T02:58:30.451Z,6.72
2023-01-04T03:01:20.950Z,6.68
2023-01-04T03:04:17.165Z,6.69
2023-01-04T03:06:49.713Z,6.69
2023-01-04T03:09:20.916Z,6.69
2023-01-04T03:12:10.899Z,6.68
2023-01-04T03:14:41.126Z,6.68
2023-01-04T03:17:12.861Z,6.68
2023-01-04T03:19:54.615Z,6.66
2023-01-04T03:22:44.145Z,6.64
2023-01-04T03:25:31.307Z,6.62
2023-01-04T03:28:18.910Z,6.58
2023-01-04T03:31:15.175Z,6.56
2023-01-04T03:34:00.990Z,6.54
2023-01-04T03:36:36.725Z,6.52
2023-01-04T03:39:29.502Z,6.48
2023-01-04T03:42:19.784Z,6.46
2023-01-04T03:45:11.336Z,6.44
2023-01-04T03:48:04.685Z,6.44
2023-01-04T03:50:37.982Z,6.43
2023-01-04T03:53:08.769Z,6.41
2023-01-04T03:55:38.553Z,6.39
2023-01-04T03:58:06.648Z,6.38
2023-01-04T04:00:35.498Z,6.37
2023-01-04T04:03:08.169Z,6.34
2023-01-04T04:05:56.882Z,6.31
2023-01-04T04:08:27.866Z,6.29
2023-01-04T04:10:57.267Z,6.28
2023-01-04T04:13:25.711Z,6.26
2023-01-04T04:15:54.826Z,6.24
2023-01-04T04:18:23.044Z,6.23
2023-01-04T04:20:58.580Z,6.19
2023-01-04T04:23:28.036Z,6.19
2023-01-04T04:25:56.125Z,6.18
2023-01-04T04:28:24.260Z,6.18
2023-01-04T04:30:53.053Z,6.18
2023-01-04T04:33:21.161Z,6.19
2023-01-04T04:35:51.918Z,6.19
2023-01-04T04:38:20.536Z,6.19
2023-01-04T04:41:07.394Z,6.19
2023-01-04T04:43:35.615Z,6.19
2023-01-04T04:46:04.025Z,6.17
2023-01-04T04:48:32.302Z,6.16
2023-01-04T04:51:00.460Z,6.14
2023-01-04T04:53:28.516Z,6.15
2023-01-04T04:55:58.020Z,6.14
2023-01-04T04:58:26.111Z,6.13
2023-01-04T05:00:54.293Z,6.13
2023-01-04T05:03:22.643Z,6.12
2023-01-04T05:05:50.730Z,6.13
2023-01-04T05:08:18.826Z,6.13
2023-01-04T05:10:47.195Z,6.13
2023-01-04T05:13:15.678Z,6.13
2023-01-04T05:15:46.239Z,6.12
2023-01-04T05:18:15.586Z,6.13
2023-01-04T05:20:44.256Z,6.13
2023-01-04T05:23:14.206Z,6.16
2023-01-04T05:25:42.560Z,6.15
2023-01-04T05:28:11.693Z,6.16
2023-01-04T05:30:53.924Z,6.16
2023-01-04T05:33:23.523Z,6.16
2023-01-04T05:35:52.219Z,6.16
2023-01-04T05:38:20.904Z,6.18
2023-01-04T05:40:49.995Z,6.18
2023-01-04T05:43:17.867Z,6.20
2023-01-04T05:45:49.724Z,6.20
2023-01-04T05:48:17.889Z,6.21
2023-01-04T05:50:46.775Z,6.23
2023-01-04T05:53:17.318Z,6.23
2023-01-04T05:55:45.408Z,6.24
2023-01-04T05:58:13.451Z,6.26
2023-01-04T06:00:41.558Z,6.29
2023-01-04T06:03:11.162Z,6.29
2023-01-04T06:05:39.386Z,6.29
2023-01-04T06:08:07.641Z,6.32
2023-01-04T06:10:35.730Z,6.32
2023-01-04T06:13:03.802Z,6.34
2023-01-04T06:15:31.866Z,6.35
2023-01-04T06:18:00.008Z,6.36
2023-01-04T06:20:29.466Z,6.39
2023-01-04T06:22:57.543Z,6.41
2023-01-04T06:25:25.603Z,6.43
2023-01-04T06:27:53.658Z,6.45
2023-01-04T06:30:21.694Z,6.47
2023-01-04T06:32:49.769Z,6.47
2023-01-04T06:35:17.985Z,6.50
2023-01-04T06:37:47.428Z,6.52
2023-01-04T06:40:15.578Z,6.57
2023-01-04T06:42:46.337Z,6.59
2023-01-04T06:45:15.322Z,6.60
2023-01-04T06:47:43.510Z,6.63
2023-01-04T06:50:12.286Z,6.67
2023-01-04T06:52:40.495Z,6.68
2023-01-04T06:55:10.791Z,6.70
2023-01-04T06:57:38.909Z,6.73
2023-01-04T07:00:09.153Z,6.75
2023-01-04T07:02:37.535Z,6.77
2023-01-04T07:05:06.383Z,6.80
2023-01-04T07:07:35.532Z,6.83
2023-01-04T07:10:09.470Z,6.86
2023-01-04T07:12:39.739Z,6.91
2023-01-04T07:15:38.980Z,6.94
2023-01-04T07:17:56.944Z,6.98
2023-01-04T07:20:25.014Z,7.01
2023-01-04T07:22:53.397Z,7.06
2023-01-04T07:25:21.823Z,7.09
2023-01-04T07:27:54.039Z,7.14
2023-01-04T07:30:23.009Z,7.17
2023-01-04T07:32:52.732Z,7.22
2023-01-04T07:35:21.227Z,7.25
2023-01-04T07:37:55.671Z,7.28
2023-01-04T07:40:26.596Z,7.32
2023-01-04T07:43:00.315Z,7.34
2023-01-04T07:45:28.676Z,7.37
2023-01-04T07:47:56.787Z,7.40
2023-01-04T07:50:24.864Z,7.44
2023-01-04T07:52:52.929Z,7.46
2023-01-04T07:55:21.043Z,7.50
2023-01-04T07:57:49.109Z,7.52
2023-01-04T08:00:19.179Z,7.56
2023-01-04T08:02:49.700Z,7.60
2023-01-04T08:05:18.069Z,7.64
2023-01-04T08:07:46.184Z,7.67
2023-01-04T08:10:17.039Z,7.71
2023-01-04T08:12:45.104Z,7.76
2023-01-04T08:15:14.908Z,7.80
2023-01-04T08:17:49.201Z,7.84
2023-01-04T08:20:17.570Z,7.88
2023-01-04T08:22:45.630Z,7.93
2023-01-04T08:25:13.724Z,7.96
2023-01-04T08:27:42.409Z,8.01
2023-01-04T08:30:11.409Z,8.05
2023-01-04T08:32:40.616Z,8.10
2023-01-04T08:35:10.373Z,8.16
2023-01-04T08:37:38.437Z,8.23
2023-01-04T08:40:07.549Z,8.27
2023-01-04T08:42:35.634Z,8.33
2023-01-04T08:45:03.751Z,8.39
2023-01-04T08:47:33.084Z,8.45
2023-01-04T08:50:08.206Z,8.49
2023-01-04T08:52:40.007Z,8.55
2023-01-04T08:55:13.199Z,8.62
2023-01-04T08:57:42.148Z,8.67
2023-01-04T09:00:11.604Z,8.72
2023-01-04T09:02:39.884Z,8.79
2023-01-04T09:05:09.086Z,8.83
2023-01-04T09:07:37.295Z,8.91
2023-01-04T09:10:07.832Z,8.97
2023-01-04T09:12:35.908Z,9.04
2023-01-04T09:15:04.461Z,9.09
2023-01-04T09:17:32.659Z,9.14
2023-01-04T09:20:00.700Z,9.21
2023-01-04T09:22:28.862Z,9.24
2023-01-04T09:24:56.966Z,9.27
2023-01-04T09:27:26.490Z,9.29
2023-01-04T09:29:54.672Z,9.34
2023-01-04T09:32:22.745Z,9.38
2023-01-04T09:34:50.906Z,9.40
2023-01-04T09:37:19.135Z,9.43
2023-01-04T09:39:47.665Z,9.43
2023-01-04T09:42:20.525Z,9.47
2023-01-04T09:45:22.457Z,9.48
2023-01-04T09:47:45.222Z,9.53
2023-01-04T09:50:16.594Z,9.57
2023-01-04T09:52:50.477Z,9.58
2023-01-04T09:55:39.630Z,9.60
2023-01-04T09:58:21.943Z,9.62
2023-01-04T10:00:53.645Z,9.63
2023-01-04T10:03:25.336Z,9.66
2023-01-04T10:05:55.616Z,9.68
2023-01-04T10:08:24.244Z,9.72
2023-01-04T10:11:03.198Z,9.74
2023-01-04T10:14:14.779Z,9.77
2023-01-04T10:17:18.070Z,9.80
2023-01-04T10:22:56.446Z,9.85
2023-01-04T10:25:30.817Z,9.86
2023-01-04T10:28:09.847Z,9.88
2023-01-04T10:30:45.288Z,9.90
2023-01-04T10:33:16.380Z,9.91
2023-01-04T10:35:45.872Z,9.94
2023-01-04T10:38:17.991Z,9.95
2023-01-04T10:40:49.364Z,9.97
2023-01-04T10:43:28.084Z,9.99
2023-01-04T10:46:01.127Z,10.01
2023-01-04T10:48:39.358Z,10.02
2023-01-04T10:51:10.520Z,10.05
2023-01-04T10:53:44.604Z,10.05
2023-01-04T10:56:25.111Z,10.10
2023-01-04T10:59:00.256Z,10.11
2023-01-04T11:01:32.890Z,10.12
2023-01-04T11:04:07.047Z,10.13
2023-01-04T11:06:40.197Z,10.15
2023-01-04T11:09:13.321Z,10.16
2023-01-04T11:11:44.474Z,10.17
2023-01-04T11:14:12.858Z,10.19
2023-01-04T11:16:42.878Z,10.20
2023-01-04T11:19:12.704Z,10.21
2023-01-04T11:21:44.227Z,10.24
2023-01-04T11:24:31.619Z,10.23
2023-01-04T11:27:05.422Z,10.23
2023-01-04T11:29:36.352Z,10.24
2023-01-04T11:32:07.132Z,10.24
2023-01-04T11:34:49.257Z,10.25
2023-01-04T11:37:26.528Z,10.27
2023-01-04T11:40:19.961Z,10.30
2023-01-04T11:42:49.563Z,10.31
2023-01-04T11:45:19.894Z,10.34
2023-01-04T11:47:55.740Z,10.38
2023-01-04T11:50:41.085Z,10.40
2023-01-04T11:53:27.865Z,10.40
2023-01-04T11:56:20.095Z,10.42
2023-01-04T11:59:07.991Z,10.44
2023-01-04T12:01:37.787Z,10.44
2023-01-04T12:04:12.358Z,10.45
2023-01-04T12:06:44.604Z,10.44
2023-01-04T12:09:14.897Z,10.47
2023-01-04T12:11:44.567Z,10.45
2023-01-04T12:14:19.876Z,10.49
2023-01-04T12:16:52.635Z,10.49
2023-01-04T12:19:22.440Z,10.52
2023-01-04T12:21:53.885Z,10.53
2023-01-04T12:24:24.138Z,10.55
2023-01-04T12:26:52.956Z,10.55
2023-01-04T12:29:55.009Z,10.56
2023-01-04T12:32:42.833Z,10.58
2023-01-04T12:35:44.099Z,10.60
2023-01-04T12:38:13.540Z,10.61
2023-01-04T12:40:55.142Z,10.63
2023-01-04T12:43:27.878Z,10.63
2023-01-04T12:46:58.255Z,10.63
2023-01-04T12:49:46.481Z,10.60
2023-01-04T12:52:48.418Z,10.62
2023-01-04T12:55:58.011Z,10.63
2023-01-04T13:02:21.834Z,10.62
2023-01-04T13:04:59.084Z,10.63
2023-01-04T13:07:43.651Z,10.65
2023-01-04T13:10:22.415Z,10.65
2023-01-04T13:13:08.336Z,10.66
2023-01-04T13:15:46.995Z,10.68
2023-01-04T13:18:29.549Z,10.70
2023-01-04T13:20:57.709Z,10.70
2023-01-04T13:23:27.233Z,10.72
2023-01-04T13:25:55.309Z,10.75
2023-01-04T13:28:24.801Z,10.76
2023-01-04T13:31:00.859Z,10.77
2023-01-04T13:33:29.204Z,10.75
2023-01-04T13:36:10.530Z,10.74
2023-01-04T13:38:40.553Z,10.77
2023-01-04T13:41:20.959Z,10.75
2023-01-04T13:44:06.551Z,10.75
2023-01-04T13:46:34.695Z,10.75
2023-01-04T13:49:03.553Z,10.73
2023-01-04T13:51:37.717Z,10.75
2023-01-04T13:54:18.236Z,10.74
2023-01-04T13:56:53.318Z,10.74
2023-01-04T13:59:24.789Z,10.75
2023-01-04T14:01:53.364Z,10.74
2023-01-04T14:04:25.535Z,10.73
2023-01-04T14:06:55.452Z,10.73
2023-01-04T14:09:25.551Z,10.73
2023-01-04T14:12:09.636Z,10.72
2023-01-04T14:14:48.705Z,10.72
2023-01-04T14:17:34.848Z,10.70
2023-01-04T14:20:04.698Z,10.71
2023-01-04T14:22:43.649Z,10.70
2023-01-04T14:25:56.436Z,10.69
2023-01-04T14:28:49.894Z,10.67
2023-01-04T14:31:26.938Z,10.65
2023-01-04T14:33:55.847Z,10.59
2023-01-04T14:36:26.889Z,10.56
2023-01-04T14:39:11.569Z,10.50
2023-01-04T14:41:40.992Z,10.46
2023-01-04T14:44:14.725Z,10.43
2023-01-04T14:46:47.004Z,10.42
2023-01-04T14:49:15.298Z,10.42
2023-01-04T14:51:45.158Z,10.41
2023-01-04T14:54:20.444Z,10.41
2023-01-04T14:56:52.665Z,10.41
2023-01-04T14:59:23.651Z,10.38
2023-01-04T15:01:53.681Z,10.36
2023-01-04T15:04:21.947Z,10.34
2023-01-04T15:06:52.184Z,10.32
2023-01-04T15:09:20.268Z,10.29
2023-01-04T15:11:48.369Z,10.26
2023-01-04T15:14:16.731Z,10.23
2023-01-04T15:16:44.876Z,10.17
2023-01-04T15:19:14.506Z,10.12
2023-01-04T15:21:42.705Z,10.08
2023-01-04T15:24:10.867Z,10.03
2023-01-04T15:26:39.738Z,10.00
2023-01-04T15:29:08.538Z,9.98
2023-01-04T15:31:40.385Z,9.95
2023-01-04T15:34:10.324Z,9.96
2023-01-04T15:36:41.124Z,9.96
2023-01-04T15:39:12.383Z,9.96
2023-01-04T15:41:57.858Z,9.96
2023-01-04T15:44:26.285Z,9.97
2023-01-04T15:46:54.525Z,9.97
2023-01-04T15:49:22.713Z,9.96
2023-01-04T15:51:52.250Z,9.95
2023-01-04T15:54:21.738Z,9.96
2023-01-04T15:56:50.247Z,9.97
2023-01-04T15:59:18.546Z,9.96
2023-01-04T16:01:47.518Z,9.96
2023-01-04T16:04:16.057Z,9.95
2023-01-04T16:06:44.138Z,9.94
2023-01-04T16:09:13.664Z,9.92
2023-01-04T16:12:02.040Z,9.89
2023-01-04T16:14:30.231Z,9.88
2023-01-04T16:16:58.344Z,9.88
2023-01-04T16:19:27.566Z,9.86
2023-01-04T16:21:56.079Z,9.85
2023-01-04T16:27:13.683Z,9.83
2023-01-04T16:29:41.780Z,9.82
2023-01-04T16:32:09.850Z,9.81
2023-01-04T16:34:37.963Z,9.80
2023-01-04T16:37:06.332Z,9.79
2023-01-04T16:42:24.044Z,9.77
2023-01-04T16:44:52.177Z,9.76
2023-01-04T16:47:20.469Z,9.75
2023-01-04T16:49:52.366Z,9.73
2023-01-04T16:52:20.570Z,9.72
2023-01-04T16:54:50.216Z,9.72
2023-01-04T16:57:18.317Z,9.71
2023-01-04T16:59:46.434Z,9.70
2023-01-04T17:02:14.762Z,9.69
2023-01-04T17:04:43.072Z,9.68
2023-01-04T17:07:11.407Z,9.68
2023-01-04T17:09:41.294Z,9.66
2023-01-04T17:12:45.531Z,9.62
2023-01-04T17:17:46.951Z,9.53
2023-01-04T17:20:15.196Z,9.48
2023-01-04T17:22:43.320Z,9.45
2023-01-04T17:25:11.460Z,9.41
2023-01-04T17:27:40.956Z,9.37
2023-01-04T17:30:10.517Z,9.37
2023-01-04T17:32:38.629Z,9.33
2023-01-04T17:35:06.960Z,9.33
2023-01-04T17:37:35.044Z,9.32
2023-01-04T17:40:03.445Z,9.32
2023-01-04T17:42:33.478Z,9.30
2023-01-04T17:45:02.978Z,9.28
2023-01-04T17:47:31.088Z,9.30
2023-01-04T17:49:59.179Z,9.27
2023-01-04T17:52:31.192Z,9.26
2023-01-04T17:54:59.767Z,9.26
2023-01-04T17:57:29.433Z,9.28
2023-01-04T17:59:57.515Z,9.27
2023-01-04T18:02:29.736Z,9.27
2023-01-04T18:04:57.874Z,9.27
2023-01-04T18:07:25.997Z,9.29
2023-01-04T18:09:54.491Z,9.28
2023-01-04T18:12:22.916Z,9.30
2023-01-04T18:14:51.052Z,9.29
2023-01-04T18:17:19.173Z,9.32
2023-01-04T18:19:48.769Z,9.30
2023-01-04T18:22:17.014Z,9.31
2023-01-04T18:24:45.099Z,9.30
2023-01-04T18:27:23.662Z,9.30
2023-01-04T18:29:54.146Z,9.29
2023-01-04T18:32:22.409Z,9.27
2023-01-04T18:34:51.939Z,9.25
2023-01-04T18:37:20.411Z,9.24
2023-01-04T18:39:48.996Z,9.21
2023-01-04T18:42:17.335Z,9.23
2023-01-04T18:44:49.631Z,9.19
2023-01-04T18:47:19.966Z,9.18
2023-01-04T18:49:48.629Z,9.17
2023-01-04T18:52:18.844Z,9.18
2023-01-04T18:54:48.414Z,9.18
2023-01-04T18:57:16.598Z,9.20
2023-01-04T18:59:44.792Z,9.19
2023-01-04T19:02:17.117Z,9.19
2023-01-04T19:04:45.733Z,9.18
2023-01-04T19:07:13.883Z,9.18
2023-01-04T19:09:43.534Z,9.19
2023-01-04T19:12:12.078Z,9.21
2023-01-04T19:14:41.777Z,9.19
2023-01-04T19:17:10.222Z,9.18
2023-01-04T19:19:38.446Z,9.16
2023-01-04T19:22:07.216Z,9.14
2023-01-04T19:24:35.294Z,9.12
2023-01-04T19:27:05.299Z,9.11
2023-01-04T19:29:34.034Z,9.10
2023-01-04T19:32:02.225Z,9.10
2023-01-04T19:34:30.317Z,9.09
2023-01-04T19:36:58.410Z,9.08
2023-01-04T19:39:26.675Z,9.09
2023-01-04T19:41:54.790Z,9.10
2023-01-04T19:44:24.592Z,9.10
2023-01-04T19:46:52.670Z,9.09
2023-01-04T19:49:20.780Z,9.09
2023-01-04T19:51:51.623Z,9.09
2023-01-04T19:54:25.132Z,9.09
2023-01-04T19:56:54.022Z,9.11
2023-01-04T19:59:22.306Z,9.11
2023-01-04T20:01:52.157Z,9.12
2023-01-04T20:04:20.907Z,9.12
2023-01-04T20:06:49.170Z,9.13
2023-01-04T20:09:20.401Z,9.13
2023-01-04T20:11:48.467Z,9.15
2023-01-04T20:14:16.546Z,9.15
2023-01-04T20:16:44.644Z,9.16
2023-01-04T20:19:14.431Z,9.14
2023-01-04T20:21:42.746Z,9.14
2023-01-04T20:24:11.381Z,9.14
2023-01-04T20:26:39.877Z,9.13
2023-01-04T20:29:08.251Z,9.12
2023-01-04T20:31:40.873Z,9.13
2023-01-04T20:34:12.101Z,9.13
2023-01-04T20:36:41.543Z,9.12
2023-01-04T20:39:09.729Z,9.10
2023-01-04T20:41:37.833Z,9.09
2023-01-04T20:44:05.237Z,9.08
2023-01-04T20:46:33.606Z,9.08
2023-01-04T20:49:02.384Z,9.08
2023-01-04T20:51:31.215Z,9.09
2023-01-04T20:54:01.281Z,9.10
2023-01-04T20:56:31.541Z,9.11
2023-01-04T20:58:59.682Z,9.11
2023-01-04T21:01:27.936Z,9.13
2023-01-04T21:03:56.521Z,9.13
2023-01-04T21:06:25.068Z,9.13
2023-01-04T21:08:54.932Z,9.14
2023-01-04T21:11:24.736Z,9.17
2023-01-04T21:13:53.505Z,9.18
2023-01-04T21:16:21.771Z,9.17
2023-01-04T21:18:49.902Z,9.19
2023-01-04T21:21:20.000Z,9.20
2023-01-04T21:23:56.046Z,9.21
2023-01-04T21:26:27.558Z,9.20
2023-01-04T21:28:55.679Z,9.21
2023-01-04T21:31:25.832Z,9.21
2023-01-04T21:33:54.974Z,9.21
2023-01-04T21:36:25.005Z,9.17
2023-01-04T21:38:54.501Z,9.17
2023-01-04T21:41:24.973Z,9.18
2023-01-04T21:43:56.659Z,9.16
2023-01-04T21:46:26.049Z,9.14
2023-01-04T21:48:55.170Z,9.17
2023-01-04T21:51:23.576Z,9.18
2023-01-04T21:53:51.762Z,9.18
2023-01-04T21:56:21.036Z,9.20
2023-01-04T21:58:49.491Z,9.19
2023-01-04T22:01:20.836Z,9.19
2023-01-04T22:03:49.146Z,9.19
2023-01-04T22:06:17.790Z,9.19
2023-01-04T22:08:46.503Z,9.21
2023-01-04T22:11:15.591Z,9.18
2023-01-04T22:13:44.142Z,9.17
2023-01-04T22:16:14.553Z,9.15
2023-01-04T22:18:46.994Z,9.13
2023-01-04T22:21:16.788Z,9.13
2023-01-04T22:23:44.973Z,9.14
2023-01-04T22:26:13.084Z,9.13
2023-01-04T22:28:41.199Z,9.13
2023-01-04T22:31:12.398Z,9.13
2023-01-04T22:33:40.639Z,9.11
2023-01-04T22:36:19.121Z,9.11
2023-01-04T22:38:50.457Z,9.11
2023-01-04T22:41:21.194Z,9.11
2023-01-04T22:43:54.335Z,9.10
2023-01-04T22:46:22.460Z,9.11
2023-01-04T22:48:50.577Z,9.11
2023-01-04T22:51:20.804Z,9.11
2023-01-04T22:53:49.343Z,9.10
2023-01-04T22:56:19.938Z,9.10
2023-01-04T22:58:53.344Z,9.09
2023-01-04T23:01:22.535Z,9.08
2023-01-04T23:03:51.857Z,9.07
2023-01-04T23:06:22.203Z,9.07
2023-01-04T23:08:55.900Z,9.04
2023-01-04T23:11:24.241Z,9.06
2023-01-04T23:13:53.125Z,9.05
2023-01-04T23:16:24.965Z,9.04
2023-01-04T23:18:57.880Z,9.04
2023-01-04T23:21:27.508Z,9.02
2023-01-04T23:23:55.640Z,8.96
2023-01-04T23:26:25.091Z,8.92
2023-01-04T23:28:53.604Z,8.87
2023-01-04T23:31:23.351Z,8.82
2023-01-04T23:33:54.064Z,8.74
2023-01-04T23:36:24.419Z,8.69
2023-01-04T23:38:55.496Z,8.60
2023-01-04T23:41:44.236Z,8.51
2023-01-04T23:44:14.691Z,8.44
2023-01-04T23:46:43.234Z,8.34
2023-01-04T23:49:11.699Z,8.31
2023-01-04T23:51:40.063Z,8.23
2023-01-04T23:54:09.846Z,8.19
2023-01-04T23:56:38.658Z,8.16
2023-01-04T23:59:06.916Z,8.12
